Time;durP1;ratioP1;P1;durP2;ratioP2;P2;SDS_P1;SDS_P2;PMS_P1;PMS_P2;Temp;Humidity;BMP_temperature;BMP_pressure;BME280_temperature;BME280_humidity;BME280_pressure;Samples;Min_cycle;Max_cycle;Signal;HPM_P1;HPM_P2
2023/05/31 00:00:21;;;;;;;11.77;4.57;;;;;;;42.05;34.92;101181.56;5018640;28;20841;-83
2023/05/31 00:02:47;;;;;;;12.10;3.40;;;;;;;42.04;34.85;101179.97;5028898;28;20434;-84
2023/05/31 00:05:13;;;;;;;11.97;4.50;;;;;;;41.99;35.12;101172.78;5033644;28;20433;-83
2023/05/31 00:07:39;;;;;;;9.13;4.00;;;;;;;41.94;34.75;101164.00;5035744;28;20558;-84
2023/05/31 00:10:06;;;;;;;10.87;5.03;;;;;;;41.98;34.51;101171.16;5057572;23;20581;-85
2023/05/31 00:12:31;;;;;;;12.50;3.23;;;;;;;41.93;34.30;101171.38;5047724;28;20469;-85
2023/05/31 00:14:57;;;;;;;13.77;4.70;;;;;;;41.95;34.33;101171.03;5046017;28;20458;-83
2023/05/31 00:17:23;;;;;;;10.20;3.50;;;;;;;41.95;34.38;101162.88;5051439;28;20206;-83
2023/05/31 00:19:50;;;;;;;14.90;3.90;;;;;;;41.90;34.69;101163.03;5053888;28;20468;-84
2023/05/31 00:22:16;;;;;;;11.00;4.30;;;;;;;41.88;34.63;101155.19;5051617;28;20456;-84
2023/05/31 00:24:43;;;;;;;19.30;3.47;;;;;;;41.90;34.54;101149.41;5053772;28;20452;-82
2023/05/31 00:27:10;;;;;;;10.43;4.43;;;;;;;41.89;35.19;101145.09;5050673;28;20448;-83
2023/05/31 00:29:35;;;;;;;14.90;4.00;;;;;;;41.89;34.83;101153.28;5052892;28;20811;-86
2023/05/31 00:32:01;;;;;;;15.37;4.57;;;;;;;41.90;34.62;101146.69;5047139;28;20992;-86
2023/05/31 00:34:27;;;;;;;15.87;6.37;;;;;;;41.92;34.52;101152.59;5051470;28;20225;-85
2023/05/31 00:36:53;;;;;;;14.43;3.80;;;;;;;41.95;34.42;101149.25;5042992;28;20183;-82
2023/05/31 00:39:19;;;;;;;9.10;3.80;;;;;;;41.88;34.59;101146.22;5049802;28;20539;-84
2023/05/31 00:41:45;;;;;;;12.47;3.70;;;;;;;41.82;34.22;101140.97;5041420;28;20422;-85
2023/05/31 00:44:11;;;;;;;8.57;2.90;;;;;;;41.85;34.15;101128.59;5048271;28;20746;-83
2023/05/31 00:46:40;;;;;;;12.63;4.50;;;;;;;41.86;34.61;101132.91;5040255;28;20524;-84
2023/05/31 00:49:07;;;;;;;11.67;4.13;;;;;;;41.90;34.58;101122.16;5045962;28;20421;-83
2023/05/31 00:51:36;;;;;;;11.73;4.27;;;;;;;41.95;34.50;101111.09;5039699;28;20460;-84
2023/05/31 00:54:03;;;;;;;17.27;6.00;;;;;;;41.94;34.81;101104.03;5043504;28;20470;-83
2023/05/31 00:56:29;;;;;;;11.00;4.10;;;;;;;41.95;35.29;101100.19;5041346;28;20426;-84
2023/05/31 00:58:57;;;;;;;10.37;4.43;;;;;;;41.91;35.29;101094.59;5041487;28;20521;-83
2023/05/31 01:01:27;;;;;;;19.30;4.60;;;;;;;41.92;35.53;101092.66;5044312;28;20441;-83
2023/05/31 01:03:57;;;;;;;25.93;5.80;;;;;;;41.93;35.42;101083.34;5074364;28;20433;-83
2023/05/31 01:06:23;;;;;;;18.20;5.03;;;;;;;41.91;35.67;101078.22;5072223;28;20515;-83
2023/05/31 01:08:50;;;;;;;13.20;4.60;;;;;;;41.92;35.47;101073.59;5073905;28;20437;-84
2023/05/31 01:11:31;;;;;;;17.50;4.70;;;;;;;41.95;35.72;101072.94;5072856;28;20460;-87
2023/05/31 01:14:19;;;;;;;15.43;5.13;;;;;;;41.94;35.56;101063.16;5071694;28;20840;-87
2023/05/31 01:16:54;;;;;;;12.77;5.47;;;;;;;41.93;35.82;101064.28;5072233;28;20413;-87
2023/05/31 01:19:41;;;;;;;17.90;4.50;;;;;;;41.93;35.85;101061.56;5066376;28;20507;-88
2023/05/31 01:22:27;;;;;;;14.10;3.50;;;;;;;41.95;35.67;101070.22;5067986;28;20470;-87
2023/05/31 01:25:21;;;;;;;19.50;5.33;;;;;;;41.92;36.01;101062.69;5073123;28;20441;-86
2023/05/31 01:27:47;;;;;;;13.83;4.50;;;;;;;41.93;36.03;101067.81;5073196;28;20409;-87
2023/05/31 01:30:16;;;;;;;19.30;6.30;;;;;;;41.90;36.44;101064.94;5071253;28;20535;-84
2023/05/31 01:32:44;;;;;;;17.10;3.83;;;;;;;41.89;36.25;101058.69;5074300;28;20453;-84
2023/05/31 01:35:10;;;;;;;12.50;5.03;;;;;;;41.93;35.87;101053.38;5072672;28;20422;-83
2023/05/31 01:37:35;;;;;;;16.23;5.27;;;;;;;41.89;36.38;101047.00;5074040;28;20506;-84
2023/05/31 01:40:03;;;;;;;17.60;4.97;;;;;;;41.86;36.25;101032.09;5072072;28;20461;-85
2023/05/31 01:42:30;;;;;;;12.40;4.90;;;;;;;41.86;35.89;101032.91;5074393;28;20235;-86
2023/05/31 01:44:57;;;;;;;21.63;5.00;;;;;;;41.85;35.95;101025.84;5072190;28;20448;-84
2023/05/31 01:47:23;;;;;;;13.13;4.90;;;;;;;41.84;35.85;101029.72;5073432;28;20453;-84
2023/05/31 01:49:50;;;;;;;10.93;3.90;;;;;;;41.86;35.50;101027.44;5072634;28;20430;-84
2023/05/31 01:52:19;;;;;;;14.23;5.70;;;;;;;41.85;35.69;101031.31;5073476;28;20994;-84
2023/05/31 01:54:45;;;;;;;14.03;5.10;;;;;;;41.85;35.82;101035.97;5072253;28;20413;-84
2023/05/31 01:57:13;;;;;;;14.67;7.10;;;;;;;41.83;36.15;101044.47;5073464;28;20425;-84
2023/05/31 01:59:40;;;;;;;29.43;7.20;;;;;;;41.76;35.85;101041.47;5068167;28;20464;-84
2023/05/31 02:02:06;;;;;;;10.53;3.13;;;;;;;41.74;35.76;101041.00;5065596;28;20451;-84
2023/05/31 02:04:32;;;;;;;12.87;4.17;;;;;;;41.72;35.52;101032.31;5074313;28;20433;-84
2023/05/31 02:07:00;;;;;;;20.40;5.70;;;;;;;41.76;35.85;101022.41;5063921;28;20810;-83
2023/05/31 02:09:26;;;;;;;14.00;4.10;;;;;;;41.79;35.77;101018.19;5054968;28;20426;-83
2023/05/31 02:11:51;;;;;;;13.67;4.23;;;;;;;41.75;36.14;101034.44;5054916;28;20583;-84
2023/05/31 02:14:17;;;;;;;14.83;4.00;;;;;;;41.78;36.24;101027.50;5055199;28;20492;-84
2023/05/31 02:16:43;;;;;;;11.83;4.47;;;;;;;41.82;35.98;101037.44;5054535;28;20436;-84
2023/05/31 02:19:13;;;;;;;12.00;2.97;;;;;;;41.80;36.11;101039.66;5055102;28;20961;-84
2023/05/31 02:21:40;;;;;;;14.93;4.53;;;;;;;41.76;36.24;101037.94;5065823;28;20423;-86
2023/05/31 02:24:06;;;;;;;12.57;4.20;;;;;;;41.75;36.30;101036.34;5056449;28;20422;-86
2023/05/31 02:26:32;;;;;;;18.50;4.70;;;;;;;41.77;36.46;101048.50;5054330;28;20422;-85
2023/05/31 02:29:00;;;;;;;16.47;4.67;;;;;;;41.80;36.69;101050.56;5058971;28;20425;-84
2023/05/31 02:31:26;;;;;;;12.00;4.10;;;;;;;41.74;36.46;101056.50;5063270;28;20685;-84
2023/05/31 02:33:52;;;;;;;19.80;5.90;;;;;;;41.72;36.71;101042.41;5067197;28;20418;-83
2023/05/31 02:36:18;;;;;;;14.50;4.73;;;;;;;41.73;36.76;101042.06;5054319;28;20256;-83
2023/05/31 02:38:44;;;;;;;10.53;3.50;;;;;;;41.65;36.46;101044.84;5054532;28;20233;-85
2023/05/31 02:41:10;;;;;;;11.63;3.90;;;;;;;41.64;36.75;101044.06;5054259;28;20445;-84
2023/05/31 02:43:36;;;;;;;14.50;4.93;;;;;;;41.65;36.71;101056.53;5054902;28;20914;-84
2023/05/31 02:46:02;;;;;;;13.57;3.97;;;;;;;41.67;36.56;101050.75;5054889;28;20457;-85
2023/05/31 02:48:29;;;;;;;12.57;4.67;;;;;;;41.67;36.79;101043.38;5054627;28;20285;-86
2023/05/31 02:50:56;;;;;;;17.50;5.13;;;;;;;41.68;36.87;101045.00;5054718;28;20433;-87
2023/05/31 02:53:22;;;;;;;22.70;5.40;;;;;;;41.74;36.89;101053.78;5055299;28;20994;-85
2023/05/31 02:55:48;;;;;;;19.20;4.93;;;;;;;41.74;37.00;101054.63;5054545;28;20456;-84
2023/05/31 02:58:14;;;;;;;17.40;6.77;;;;;;;41.51;38.17;101045.88;5073008;28;20422;-84
2023/05/31 03:00:40;;;;;;;12.47;4.47;;;;;;;41.53;38.37;101048.28;5054190;28;20468;-86
2023/05/31 03:03:06;;;;;;;19.03;5.00;;;;;;;41.30;38.89;101053.91;5053911;28;20425;-84
2023/05/31 03:05:33;;;;;;;12.37;4.73;;;;;;;41.23;38.71;101063.72;5057274;28;20429;-84
2023/05/31 03:07:59;;;;;;;19.90;5.93;;;;;;;41.33;38.92;101074.31;5055379;28;20179;-86
2023/05/31 03:10:26;;;;;;;11.80;7.10;;;;;;;41.29;38.66;101070.59;5085063;28;20877;-87
2023/05/31 03:12:53;;;;;;;14.03;6.20;;;;;;;41.31;38.36;101073.78;5054341;28;21019;-85
2023/05/31 03:15:19;;;;;;;13.87;6.07;;;;;;;41.26;38.42;101069.31;5043844;28;20187;-85
2023/05/31 03:17:45;;;;;;;12.50;5.80;;;;;;;41.22;38.46;101065.66;5053614;28;20426;-83
2023/05/31 03:20:11;;;;;;;18.60;7.83;;;;;;;41.22;39.22;101054.75;5054374;28;20526;-85
2023/05/31 03:22:37;;;;;;;16.03;7.03;;;;;;;41.22;38.91;101056.69;5053928;28;20426;-84
2023/05/31 03:25:04;;;;;;;16.40;7.10;;;;;;;41.18;39.10;101053.78;5053950;28;20422;-84
2023/05/31 03:27:31;;;;;;;15.07;8.27;;;;;;;41.12;39.00;101052.38;5054370;28;20461;-84
2023/05/31 03:29:57;;;;;;;14.60;8.20;;;;;;;41.18;39.03;101055.72;5054224;28;20472;-82
2023/05/31 03:32:23;;;;;;;14.90;10.10;;;;;;;41.18;39.12;101053.78;5054121;28;20433;-86
2023/05/31 03:34:49;;;;;;;15.40;10.70;;;;;;;41.15;38.97;101054.47;5054197;28;20417;-84
2023/05/31 03:37:17;;;;;;;20.63;12.63;;;;;;;41.14;38.88;101047.44;5072287;28;20256;-85
2023/05/31 03:39:42;;;;;;;15.90;10.37;;;;;;;41.10;38.72;101054.63;5054876;28;20548;-84
2023/05/31 03:42:08;;;;;;;20.93;10.03;;;;;;;41.08;38.86;101057.69;5044980;28;20208;-82
2023/05/31 03:44:34;;;;;;;20.93;11.60;;;;;;;41.05;38.82;101065.69;5057556;28;20217;-84
2023/05/31 03:47:00;;;;;;;19.17;11.50;;;;;;;41.07;38.88;101074.34;5057876;28;20425;-84
2023/05/31 03:49:26;;;;;;;20.70;12.17;;;;;;;41.12;38.94;101063.25;5057427;28;20421;-83
2023/05/31 03:51:52;;;;;;;18.93;13.03;;;;;;;41.08;39.07;101067.78;5070530;28;20533;-85
2023/05/31 03:54:19;;;;;;;23.47;12.00;;;;;;;41.04;38.98;101078.50;5057524;28;20198;-84
2023/05/31 03:56:47;;;;;;;27.33;12.30;;;;;;;41.02;39.12;101080.75;5052116;28;20787;-85
2023/05/31 03:59:13;;;;;;;21.73;13.27;;;;;;;41.06;39.17;101075.44;5076828;28;20471;-82
2023/05/31 04:01:39;;;;;;;17.40;11.30;;;;;;;41.00;38.80;101072.09;5063988;28;20448;-85
2023/05/31 04:04:05;;;;;;;19.50;13.20;;;;;;;40.99;39.17;101072.41;5080379;28;20187;-84
2023/05/31 04:06:31;;;;;;;23.70;13.57;;;;;;;41.01;39.07;101072.91;5057629;28;20422;-84
2023/05/31 04:08:57;;;;;;;18.30;12.63;;;;;;;41.00;39.13;101071.28;5057150;28;20426;-85
2023/05/31 04:11:23;;;;;;;20.93;12.80;;;;;;;41.00;39.40;101074.81;5056725;28;20477;-85
2023/05/31 04:13:49;;;;;;;24.70;13.50;;;;;;;41.01;38.94;101072.91;5057106;28;20594;-84
2023/05/31 04:16:16;;;;;;;19.20;13.07;;;;;;;40.98;39.36;101074.34;5075328;28;20787;-85
2023/05/31 04:18:44;;;;;;;21.97;12.67;;;;;;;41.05;38.93;101082.00;5056448;28;20972;-84
2023/05/31 04:21:12;;;;;;;17.77;9.43;;;;;;;41.04;38.66;101089.38;5048001;28;20436;-85
2023/05/31 04:23:38;;;;;;;14.57;6.53;;;;;;;41.07;37.59;101087.94;5061760;28;20979;-84
2023/05/31 04:26:04;;;;;;;15.57;3.90;;;;;;;40.98;37.92;101085.22;5056734;28;20450;-83
2023/05/31 04:28:31;;;;;;;16.93;3.70;;;;;;;41.03;37.48;101074.16;5057799;28;20183;-84
2023/05/31 04:31:00;;;;;;;20.37;6.07;;;;;;;41.17;37.31;101073.97;5069079;28;20460;-86
2023/05/31 04:33:29;;;;;;;14.73;4.70;;;;;;;41.17;37.83;101073.97;5057110;28;21013;-87
2023/05/31 04:35:57;;;;;;;17.10;5.10;;;;;;;41.21;37.73;101077.66;5056875;28;20426;-86
2023/05/31 04:38:27;;;;;;;10.90;4.50;;;;;;;41.22;38.10;101070.28;5075040;28;20452;-86
2023/05/31 04:40:55;;;;;;;12.60;4.77;;;;;;;41.32;38.27;101089.00;5057026;28;20442;-87
2023/05/31 04:43:21;;;;;;;10.00;3.30;;;;;;;41.37;37.83;101085.31;5057445;28;20437;-87
2023/05/31 04:45:48;;;;;;;14.33;6.80;;;;;;;41.19;38.52;101077.19;5057368;28;20433;-86
2023/05/31 04:48:16;;;;;;;11.57;6.40;;;;;;;41.30;37.97;101075.69;5058404;28;20456;-87
2023/05/31 04:50:43;;;;;;;17.70;6.80;;;;;;;41.20;38.18;101088.88;5056307;28;20422;-87
2023/05/31 04:53:10;;;;;;;11.10;4.37;;;;;;;41.20;37.78;101081.50;5057305;28;20429;-87
2023/05/31 04:55:36;;;;;;;14.17;3.83;;;;;;;41.23;37.71;101086.28;5057369;28;20422;-85
2023/05/31 04:58:02;;;;;;;20.30;4.40;;;;;;;41.24;37.86;101087.88;5075186;28;20433;-83
2023/05/31 05:00:28;;;;;;;16.60;5.83;;;;;;;41.25;38.24;101097.66;5056716;28;20622;-85
2023/05/31 05:02:56;;;;;;;15.73;6.23;;;;;;;41.20;38.19;101113.38;5059512;28;20197;-85
2023/05/31 05:05:23;;;;;;;17.03;5.00;;;;;;;41.03;38.37;101119.63;5065812;28;20455;-84
2023/05/31 05:07:49;;;;;;;10.13;3.83;;;;;;;41.09;38.09;101123.78;5086195;28;20418;-84
2023/05/31 05:10:15;;;;;;;16.00;5.37;;;;;;;40.99;37.69;101130.34;5066579;28;20479;-85
2023/05/31 05:12:41;;;;;;;12.10;4.90;;;;;;;41.04;37.85;101137.56;5075652;28;20437;-84
2023/05/31 05:15:07;;;;;;;11.00;4.43;;;;;;;41.03;37.82;101142.19;5075930;28;20428;-84
2023/05/31 05:17:33;;;;;;;13.50;4.83;;;;;;;41.08;37.64;101127.63;5061803;28;20593;-84
2023/05/31 05:19:59;;;;;;;12.87;6.17;;;;;;;40.94;37.90;101132.44;5075460;28;21058;-85
2023/05/31 05:22:25;;;;;;;12.80;4.50;;;;;;;41.02;37.69;101135.16;5074601;28;20198;-84
2023/05/31 05:24:51;;;;;;;12.43;5.53;;;;;;;41.13;37.34;101132.09;5075650;28;20193;-84
2023/05/31 05:27:17;;;;;;;18.60;8.00;;;;;;;41.15;37.44;101141.56;5074265;28;20183;-84
2023/05/31 05:29:43;;;;;;;11.53;5.00;;;;;;;41.07;37.40;101135.00;5075651;28;20477;-83
2023/05/31 05:32:09;;;;;;;17.57;5.77;;;;;;;41.19;37.62;101130.81;5074660;28;20468;-85
2023/05/31 05:34:35;;;;;;;11.87;4.70;;;;;;;41.15;37.77;101135.31;5075151;28;20424;-85
2023/05/31 05:37:01;;;;;;;13.53;6.27;;;;;;;41.06;38.00;101133.38;5058232;28;20433;-84
2023/05/31 05:39:28;;;;;;;10.90;4.17;;;;;;;41.15;37.61;101136.09;5082411;28;20480;-84
2023/05/31 05:41:54;;;;;;;19.00;5.67;;;;;;;41.17;37.80;101139.28;5055314;28;20810;-84
2023/05/31 05:44:20;;;;;;;11.47;4.63;;;;;;;41.15;37.82;101144.28;5055338;28;20440;-84
2023/05/31 05:46:46;;;;;;;15.97;5.00;;;;;;;41.19;37.69;101139.78;5055394;28;20426;-84
2023/05/31 05:49:12;;;;;;;15.17;4.50;;;;;;;41.09;38.43;101134.69;5055372;28;20495;-84
2023/05/31 05:51:38;;;;;;;10.93;4.80;;;;;;;41.03;38.65;101127.78;5072246;28;20199;-85
2023/05/31 05:54:04;;;;;;;11.07;4.17;;;;;;;41.03;38.75;101130.53;5075183;28;20413;-83
2023/05/31 05:56:30;;;;;;;15.87;4.10;;;;;;;41.00;38.46;101136.59;5074021;28;20492;-83
2023/05/31 05:58:56;;;;;;;10.57;3.53;;;;;;;40.98;38.13;101134.19;5075036;28;20559;-85
2023/05/31 06:01:23;;;;;;;14.70;4.57;;;;;;;40.88;38.73;101139.13;5061107;28;20463;-84
2023/05/31 06:03:50;;;;;;;16.67;4.53;;;;;;;40.99;38.38;101135.00;5058142;28;20440;-84
2023/05/31 06:06:17;;;;;;;10.00;4.50;;;;;;;41.07;37.98;101132.28;5073980;28;20433;-85
2023/05/31 06:08:44;;;;;;;17.10;5.10;;;;;;;40.99;37.89;101129.56;5074543;28;20420;-85
2023/05/31 06:11:10;;;;;;;16.90;7.07;;;;;;;41.06;37.81;101129.84;5074267;28;20522;-83
2023/05/31 06:13:37;;;;;;;15.27;6.07;;;;;;;40.89;38.22;101135.31;5074185;28;20428;-85
2023/05/31 06:16:05;;;;;;;13.53;5.10;;;;;;;41.03;38.31;101141.41;5074195;28;20820;-84
2023/05/31 06:18:31;;;;;;;19.00;4.27;;;;;;;41.04;38.52;101141.06;5062292;28;20434;-86
2023/05/31 06:20:58;;;;;;;15.03;7.30;;;;;;;41.10;38.41;101141.72;5073266;28;20488;-86
2023/05/31 06:23:24;;;;;;;13.90;4.73;;;;;;;40.97;38.64;101146.22;5074344;28;20440;-84
2023/05/31 06:25:51;;;;;;;12.90;4.97;;;;;;;41.02;38.40;101161.56;5055058;28;20433;-86
2023/05/31 06:28:17;;;;;;;13.43;5.30;;;;;;;40.86;39.50;101160.41;5054626;28;20435;-87
2023/05/31 06:30:43;;;;;;;19.13;5.83;;;;;;;40.85;39.05;101165.06;5054620;28;20445;-86
2023/05/31 06:33:09;;;;;;;14.83;5.10;;;;;;;40.87;39.13;101160.09;5055178;28;20836;-86
2023/05/31 06:35:35;;;;;;;13.03;5.57;;;;;;;40.83;39.00;101152.91;5060936;28;20175;-86
2023/05/31 06:38:02;;;;;;;11.70;4.93;;;;;;;40.98;38.47;101149.72;5074126;28;20420;-86
2023/05/31 06:40:28;;;;;;;14.53;4.23;;;;;;;40.84;38.75;101146.34;5073637;28;20465;-84
2023/05/31 06:42:54;;;;;;;12.93;4.70;;;;;;;40.92;38.03;101161.88;5073525;28;20525;-84
2023/05/31 06:45:20;;;;;;;8.53;3.10;;;;;;;40.90;37.80;101158.66;5060832;28;20876;-84
2023/05/31 06:47:46;;;;;;;14.87;3.67;;;;;;;41.04;37.67;101171.00;5073075;28;20178;-86
2023/05/31 06:50:12;;;;;;;8.97;4.13;;;;;;;41.09;37.86;101170.06;5073117;28;20535;-85
2023/05/31 06:52:40;;;;;;;9.67;4.07;;;;;;;41.13;37.58;101184.63;5072815;28;20293;-84
2023/05/31 06:55:06;;;;;;;13.10;5.20;;;;;;;41.16;37.41;101186.69;5061408;28;20428;-83
2023/05/31 06:57:32;;;;;;;20.90;6.20;;;;;;;41.28;37.87;101188.78;5072216;28;20497;-83
2023/05/31 06:59:58;;;;;;;16.13;5.57;;;;;;;41.22;37.68;101179.97;5067346;28;20602;-85
2023/05/31 07:02:27;;;;;;;15.00;7.40;;;;;;;41.27;37.54;101179.00;5054194;28;20465;-84
2023/05/31 07:04:53;;;;;;;12.70;4.27;;;;;;;41.32;37.46;101181.56;5051152;28;20278;-83
2023/05/31 07:07:19;;;;;;;18.20;4.47;;;;;;;41.37;36.83;101188.78;5048033;28;20600;-84
2023/05/31 07:09:45;;;;;;;15.00;4.13;;;;;;;41.39;36.98;101192.00;5053602;28;20448;-84
2023/05/31 07:12:11;;;;;;;13.10;4.50;;;;;;;41.26;37.25;101191.81;5054171;28;20505;-83
2023/05/31 07:14:37;;;;;;;19.47;4.73;;;;;;;41.30;37.18;101200.94;5055193;28;20493;-84
2023/05/31 07:17:03;;;;;;;10.17;5.13;;;;;;;41.39;37.13;101197.44;5058460;28;20924;-85
2023/05/31 07:19:30;;;;;;;18.87;5.03;;;;;;;41.50;37.20;101193.25;5058240;28;20540;-86
2023/05/31 07:21:55;;;;;;;11.40;4.03;;;;;;;41.48;37.32;101193.56;5058585;28;20513;-87
2023/05/31 07:24:21;;;;;;;13.53;4.60;;;;;;;41.55;36.60;101202.03;5045921;28;20540;-88
2023/05/31 07:26:47;;;;;;;12.87;5.70;;;;;;;41.51;36.23;101203.81;5060531;28;20263;-87
2023/05/31 07:29:13;;;;;;;12.87;5.53;;;;;;;41.45;36.57;101209.75;5058559;28;20183;-87
2023/05/31 07:31:39;;;;;;;17.90;7.90;;;;;;;41.47;36.88;101204.78;5065877;28;20182;-87
2023/05/31 07:34:06;;;;;;;15.23;5.50;;;;;;;41.50;36.13;101206.88;5057666;28;20772;-84
2023/05/31 07:36:32;;;;;;;21.70;5.63;;;;;;;41.58;36.19;101211.50;5069016;28;20432;-83
2023/05/31 07:38:59;;;;;;;9.80;3.70;;;;;;;41.55;36.17;101207.47;5061388;28;20852;-83
2023/05/31 07:41:27;;;;;;;14.87;5.87;;;;;;;41.57;36.63;101205.25;5076734;28;20416;-77
2023/05/31 07:44:11;;;;;;;14.00;3.67;;;;;;;41.54;36.33;101213.25;5100856;28;20420;-94
2023/05/31 07:46:36;;;;;;;11.23;3.10;;;;;;;41.58;36.10;101219.66;5077495;28;20462;-82
2023/05/31 07:49:03;;;;;;;13.23;4.73;;;;;;;41.50;36.77;101224.00;5057841;28;20421;-83
2023/05/31 07:51:30;;;;;;;12.00;4.97;;;;;;;41.37;36.80;101222.25;5061076;28;20677;-85
2023/05/31 07:54:00;;;;;;;15.33;5.70;;;;;;;41.58;37.22;101216.94;5034834;28;20923;-85
2023/05/31 07:56:27;;;;;;;15.87;6.10;;;;;;;41.61;37.49;101225.25;5060610;28;20432;-85
2023/05/31 07:58:53;;;;;;;16.03;5.67;;;;;;;41.72;36.87;101223.00;5054425;28;20461;-88
2023/05/31 08:01:19;;;;;;;15.97;7.10;;;;;;;41.63;36.39;101219.50;5059958;28;20471;-82
2023/05/31 08:03:46;;;;;;;14.30;5.50;;;;;;;41.53;36.27;101225.28;5074960;28;20436;-86
2023/05/31 08:06:16;;;;;;;10.73;5.10;;;;;;;41.70;36.79;101227.97;5071658;28;20191;-87
2023/05/31 08:08:47;;;;;;;11.80;4.13;;;;;;;41.53;36.61;101236.19;5046390;28;20800;-86
2023/05/31 08:11:16;;;;;;;12.50;4.33;;;;;;;41.68;36.55;101241.13;5042568;28;20983;-83
2023/05/31 08:13:42;;;;;;;14.27;4.17;;;;;;;41.67;36.44;101247.69;5086809;28;20468;-85
2023/05/31 08:16:12;;;;;;;11.10;4.83;;;;;;;41.73;36.48;101240.94;5069144;28;20501;-78
2023/05/31 08:18:40;;;;;;;12.33;4.73;;;;;;;41.69;36.37;101241.94;5050652;28;20223;-85
2023/05/31 08:21:06;;;;;;;9.07;3.83;;;;;;;41.64;36.85;101240.16;5032934;28;20418;-87
2023/05/31 08:23:37;;;;;;;10.87;4.83;;;;;;;41.79;36.54;101244.31;5067124;28;20426;-85
2023/05/31 08:26:04;;;;;;;12.10;4.50;;;;;;;41.84;36.45;101246.88;5062265;28;20433;-83
2023/05/31 08:28:31;;;;;;;13.20;5.53;;;;;;;41.81;35.68;101248.34;5047425;28;20419;-81
2023/05/31 08:30:57;;;;;;;19.97;5.30;;;;;;;41.81;36.44;101258.44;5069909;28;20409;-87
2023/05/31 08:33:29;;;;;;;19.33;5.43;;;;;;;41.80;36.59;101251.38;5065476;28;20428;-85
2023/05/31 08:35:59;;;;;;;9.07;3.83;;;;;;;41.86;36.15;101253.59;5090616;28;20225;-85
2023/05/31 08:38:28;;;;;;;11.80;4.70;;;;;;;41.83;35.84;101251.53;5061056;28;20813;-85
2023/05/31 08:40:59;;;;;;;11.93;5.27;;;;;;;41.96;36.46;101259.84;5059702;28;20555;-90
2023/05/31 08:43:26;;;;;;;13.53;5.23;;;;;;;41.91;36.75;101262.72;5066989;28;20444;-88
2023/05/31 08:45:52;;;;;;;17.53;6.40;;;;;;;41.95;37.03;101255.50;5061641;28;20473;-83
2023/05/31 08:48:42;;;;;;;16.50;8.50;;;;;;;41.92;37.05;101254.22;5079446;28;20417;-83
2023/05/31 08:51:09;;;;;;;18.17;10.00;;;;;;;41.86;37.07;101259.03;5060450;28;20444;-82
2023/05/31 08:53:35;;;;;;;19.40;6.83;;;;;;;41.90;37.25;101252.97;5058008;28;20448;-82
2023/05/31 08:56:04;;;;;;;12.67;7.40;;;;;;;41.97;37.09;101259.50;5076098;28;20811;-81
2023/05/31 08:58:31;;;;;;;19.40;9.70;;;;;;;41.98;37.50;101263.81;5058668;28;20438;-82
2023/05/31 09:00:57;;;;;;;22.17;9.80;;;;;;;42.00;36.65;101260.78;5058309;28;20465;-86
2023/05/31 09:03:23;;;;;;;19.20;7.83;;;;;;;41.92;36.68;101259.66;5075310;28;20424;-89
2023/05/31 09:05:49;;;;;;;18.93;8.43;;;;;;;41.94;36.34;101262.09;5061215;28;20457;-86
2023/05/31 09:08:15;;;;;;;16.13;6.50;;;;;;;41.88;36.39;101264.19;5074469;28;20778;-86
2023/05/31 09:10:42;;;;;;;18.23;7.17;;;;;;;41.93;36.40;101266.75;5068228;28;20455;-84
2023/05/31 09:13:08;;;;;;;14.47;7.00;;;;;;;41.85;36.61;101275.72;5065578;28;20431;-86
2023/05/31 09:15:39;;;;;;;18.20;6.87;;;;;;;41.82;36.33;101276.38;5050915;28;20462;-85
2023/05/31 09:18:14;;;;;;;14.03;6.90;;;;;;;41.91;36.40;101279.06;5056578;28;20427;-85
2023/05/31 09:20:39;;;;;;;18.03;6.93;;;;;;;41.60;36.59;101280.06;5053543;28;20460;-86
2023/05/31 09:23:09;;;;;;;16.87;5.53;;;;;;;41.86;36.31;101275.38;5055079;28;20446;-85
2023/05/31 09:25:46;;;;;;;19.10;7.73;;;;;;;41.83;36.39;101281.50;5054533;28;20425;-85
2023/05/31 09:28:12;;;;;;;13.70;5.50;;;;;;;41.81;36.53;101285.69;5061754;28;20871;-85
2023/05/31 09:30:38;;;;;;;17.90;7.70;;;;;;;41.84;36.18;101285.81;5055779;28;20425;-85
2023/05/31 09:33:04;;;;;;;14.13;7.10;;;;;;;41.91;36.63;101284.53;5059399;28;20533;-85
2023/05/31 09:35:30;;;;;;;12.50;8.47;;;;;;;41.76;36.63;101288.56;5078872;28;20932;-86
2023/05/31 09:37:56;;;;;;;19.03;7.60;;;;;;;41.83;36.34;101281.50;5059254;28;20571;-87
2023/05/31 09:40:24;;;;;;;13.33;5.20;;;;;;;41.97;36.46;101284.03;5077721;28;20486;-85
2023/05/31 09:42:52;;;;;;;9.13;5.90;;;;;;;41.91;36.05;101281.81;5048641;28;20480;-85
2023/05/31 09:45:19;;;;;;;20.50;5.60;;;;;;;41.81;36.41;101281.03;5060967;28;20465;-85
2023/05/31 09:47:46;;;;;;;19.43;7.27;;;;;;;42.03;36.58;101279.19;5038224;28;20443;-85
2023/05/31 09:50:16;;;;;;;19.83;9.90;;;;;;;42.11;36.50;101276.47;5058800;28;20785;-86
2023/05/31 09:53:18;;;;;;;16.50;7.60;;;;;;;42.18;36.19;101269.75;5061373;28;20445;-85
2023/05/31 09:55:57;;;;;;;12.77;6.83;;;;;;;41.97;36.56;101277.78;4976563;28;20523;-85
2023/05/31 09:58:52;;;;;;;11.90;5.80;;;;;;;41.98;35.68;101271.19;4977308;28;20437;-85
2023/05/31 10:01:19;;;;;;;14.67;7.33;;;;;;;42.14;35.33;101267.63;4996665;28;20521;-84
2023/05/31 10:03:51;;;;;;;15.03;5.10;;;;;;;42.01;35.08;101282.25;5010632;28;20949;-84
2023/05/31 10:06:24;;;;;;;14.07;5.17;;;;;;;42.14;35.01;101277.72;5067062;28;20437;-87
2023/05/31 10:08:53;;;;;;;13.53;7.07;;;;;;;42.00;35.15;101277.94;5058703;28;20436;-87
2023/05/31 10:11:38;;;;;;;19.20;7.20;;;;;;;42.19;35.04;101272.13;5054459;28;20473;-85
2023/05/31 10:14:18;;;;;;;18.37;6.60;;;;;;;42.18;35.11;101267.81;5053210;28;20483;-85
2023/05/31 10:16:48;;;;;;;14.43;5.17;;;;;;;42.05;35.03;101272.31;5053524;28;20424;-84
2023/05/31 10:19:24;;;;;;;14.93;6.20;;;;;;;41.96;34.86;101260.63;5051792;28;20453;-85
2023/05/31 10:22:01;;;;;;;21.70;5.90;;;;;;;42.00;35.15;101260.78;5053841;28;20449;-89
2023/05/31 10:24:56;;;;;;;22.73;7.57;;;;;;;42.16;35.11;101253.69;5053279;28;20410;-85
2023/05/31 10:28:01;;;;;;;11.10;4.23;;;;;;;42.05;35.05;101255.13;5028295;28;21020;-85
2023/05/31 10:30:42;;;;;;;12.73;5.53;;;;;;;42.05;35.20;101249.69;5009695;28;20411;-86
2023/05/31 10:33:33;;;;;;;16.10;5.53;;;;;;;42.13;35.32;101240.69;5014343;28;20407;-86
2023/05/31 10:40:06;;;;;;;10.83;4.07;;;;;;;42.26;35.31;101231.53;4991028;28;20464;-85
2023/05/31 10:43:00;;;;;;;13.80;6.83;;;;;;;42.17;35.53;101236.22;5016602;28;20492;-87
2023/05/31 10:45:35;;;;;;;9.47;4.80;;;;;;;42.16;35.20;101229.16;5018621;28;20447;-85
2023/05/31 10:48:28;;;;;;;19.57;7.53;;;;;;;42.09;35.30;101224.19;5013377;28;20427;-84
2023/05/31 10:50:59;;;;;;;12.10;4.37;;;;;;;41.97;35.62;101218.63;5010763;28;20411;-83
2023/05/31 10:53:50;;;;;;;13.40;6.13;;;;;;;42.04;35.30;101202.56;5007832;28;20420;-85
2023/05/31 10:56:30;;;;;;;9.13;3.83;;;;;;;41.93;34.83;101197.78;5028912;28;20474;-84
2023/05/31 10:59:05;;;;;;;12.40;4.97;;;;;;;42.11;34.62;101189.25;5060162;28;20432;-86
2023/05/31 11:01:44;;;;;;;11.90;5.47;;;;;;;42.21;34.77;101185.38;5053932;28;20460;-87
2023/05/31 11:04:27;;;;;;;18.20;5.83;;;;;;;42.20;34.53;101180.25;5052518;28;20433;-87
2023/05/31 11:07:14;;;;;;;14.03;5.53;;;;;;;42.15;35.55;101178.47;5072672;28;20401;-86
2023/05/31 11:09:42;;;;;;;17.13;5.70;;;;;;;42.26;35.22;101166.09;5054320;28;20433;-86
2023/05/31 11:12:12;;;;;;;14.70;5.30;;;;;;;42.23;35.18;101165.94;5064286;28;20472;-84
2023/05/31 11:14:38;;;;;;;15.27;7.67;;;;;;;42.32;35.11;101159.31;5074289;28;21018;-86
2023/05/31 11:17:06;;;;;;;21.90;7.53;;;;;;;42.20;35.30;101147.53;5057102;28;20784;-87
2023/05/31 11:19:35;;;;;;;20.80;5.93;;;;;;;42.14;35.30;101150.41;5053556;28;20477;-85
2023/05/31 11:22:09;;;;;;;16.27;6.20;;;;;;;42.28;35.45;101144.75;5053872;28;20421;-84
2023/05/31 11:24:38;;;;;;;11.40;5.00;;;;;;;42.29;35.24;101148.28;5053863;28;20465;-85
2023/05/31 11:27:05;;;;;;;10.00;4.63;;;;;;;42.04;35.55;101147.25;5051159;28;20414;-85